createdAt,value
2023-03-26T00:00:11.130Z,10.76
2023-03-26T00:03:16.980Z,10.70
2023-03-26T00:06:25.592Z,10.72
2023-03-26T00:09:29.938Z,10.66
2023-03-26T00:12:32.585Z,10.72
2023-03-26T00:15:36.461Z,10.61
2023-03-26T00:18:40.463Z,10.81
2023-03-26T00:21:42.840Z,10.83
2023-03-26T00:24:48.441Z,10.67
2023-03-26T00:27:50.937Z,10.64
2023-03-26T00:31:05.623Z,10.70
2023-03-26T00:34:08.538Z,10.67
2023-03-26T00:37:12.577Z,10.61
2023-03-26T00:40:14.998Z,10.68
2023-03-26T00:43:19.382Z,10.62
2023-03-26T00:46:22.938Z,10.55
2023-03-26T00:49:26.794Z,10.62
2023-03-26T00:52:29.759Z,10.79
2023-03-26T00:55:32.362Z,10.66
2023-03-26T00:58:35.181Z,10.79
2023-03-26T01:01:37.877Z,10.81
2023-03-26T01:04:40.404Z,10.68
2023-03-26T01:07:44.716Z,10.81
2023-03-26T01:10:50.968Z,10.77
2023-03-26T01:14:04.792Z,10.73
2023-03-26T01:17:09.198Z,10.82
2023-03-26T01:20:19.360Z,10.78
2023-03-26T01:23:28.386Z,10.76
2023-03-26T01:26:48.135Z,10.63
2023-03-26T01:30:03.891Z,10.64
2023-03-26T01:33:18.726Z,10.78
2023-03-26T01:36:32.443Z,10.65
2023-03-26T01:39:49.165Z,10.67
2023-03-26T01:43:18.900Z,10.78
2023-03-26T01:46:23.821Z,10.59
2023-03-26T01:49:29.469Z,10.62
2023-03-26T01:52:32.252Z,10.64
2023-03-26T01:55:59.383Z,10.60
2023-03-26T01:59:13.355Z,10.75
2023-03-26T02:02:30.846Z,10.77
2023-03-26T02:05:37.573Z,10.72
2023-03-26T02:08:51.235Z,10.72
2023-03-26T02:11:54.944Z,10.51
2023-03-26T02:15:01.297Z,10.68
2023-03-26T02:18:04.196Z,10.67
2023-03-26T02:21:11.028Z,10.71
2023-03-26T02:24:13.907Z,10.55
2023-03-26T02:27:18.423Z,10.68
2023-03-26T02:30:29.940Z,10.61
2023-03-26T02:33:32.918Z,10.59
2023-03-26T02:36:36.154Z,10.49
2023-03-26T02:39:39.215Z,10.36
2023-03-26T02:42:42.650Z,10.53
2023-03-26T02:45:46.862Z,10.43
2023-03-26T02:48:52.742Z,10.31
2023-03-26T02:51:56.301Z,10.44
2023-03-26T02:55:00.418Z,10.32
2023-03-26T02:58:03.063Z,10.50
2023-03-26T03:01:06.093Z,10.37
2023-03-26T03:04:11.032Z,10.31
2023-03-26T03:07:15.054Z,10.32
2023-03-26T03:10:21.933Z,10.34
2023-03-26T03:13:26.655Z,10.42
2023-03-26T03:16:30.419Z,10.50
2023-03-26T03:19:33.125Z,10.48
2023-03-26T03:22:36.422Z,10.41
2023-03-26T03:25:41.102Z,10.31
2023-03-26T03:28:45.276Z,10.43
2023-03-26T03:31:49.028Z,10.29
2023-03-26T03:34:52.334Z,10.32
2023-03-26T03:37:54.738Z,10.32
2023-03-26T03:40:58.426Z,10.44
2023-03-26T03:44:01.812Z,10.33
2023-03-26T03:47:04.500Z,10.46
2023-03-26T03:50:07.678Z,10.38
2023-03-26T03:53:10.646Z,10.45
2023-03-26T03:56:14.787Z,10.38
2023-03-26T03:59:20.808Z,10.14
2023-03-26T04:02:26.721Z,9.94
2023-03-26T04:05:30.889Z,9.93
2023-03-26T04:08:34.027Z,9.82
2023-03-26T04:11:37.010Z,9.79
2023-03-26T04:14:40.653Z,9.59
2023-03-26T04:17:43.952Z,9.58
2023-03-26T04:20:46.830Z,9.68
2023-03-26T04:23:50.106Z,9.66
2023-03-26T04:26:53.557Z,9.58
2023-03-26T04:29:58.190Z,9.73
2023-03-26T04:33:04.252Z,9.54
2023-03-26T04:36:11.611Z,9.72
2023-03-26T04:39:14.204Z,9.65
2023-03-26T04:42:21.194Z,9.85
2023-03-26T04:45:24.353Z,9.75
2023-03-26T04:48:28.277Z,9.87
2023-03-26T04:51:38.418Z,9.75
2023-03-26T04:54:46.031Z,9.74
2023-03-26T04:57:55.697Z,9.94
2023-03-26T05:01:09.828Z,9.97
2023-03-26T05:04:14.448Z,9.84
2023-03-26T05:07:21.372Z,9.89
2023-03-26T05:10:23.934Z,10.05
2023-03-26T05:13:27.543Z,9.94
2023-03-26T05:16:31.885Z,10.08
2023-03-26T05:19:35.449Z,10.08
2023-03-26T05:22:38.625Z,10.07
2023-03-26T05:25:42.413Z,10.33
2023-03-26T05:28:45.904Z,10.47
2023-03-26T05:31:48.802Z,10.59
2023-03-26T05:34:51.432Z,10.73
2023-03-26T05:37:54.135Z,10.70
2023-03-26T05:41:06.271Z,10.77
2023-03-26T05:44:09.665Z,10.96
2023-03-26T05:47:12.105Z,11.21
2023-03-26T05:50:14.762Z,11.12
2023-03-26T05:53:18.995Z,11.18
2023-03-26T05:56:40.898Z,11.42
2023-03-26T05:59:45.534Z,11.29
2023-03-26T06:02:51.995Z,11.22
2023-03-26T06:06:00.812Z,11.15
2023-03-26T06:09:04.543Z,11.30
2023-03-26T06:12:09.464Z,11.32
2023-03-26T06:15:13.756Z,11.26
2023-03-26T06:18:17.784Z,11.15
2023-03-26T06:21:20.927Z,11.20
2023-03-26T06:24:24.261Z,11.24
2023-03-26T06:27:26.760Z,11.40
2023-03-26T06:30:29.948Z,11.57
2023-03-26T06:33:33.479Z,11.68
2023-03-26T06:36:36.973Z,11.59
2023-03-26T06:39:39.524Z,11.85
2023-03-26T06:43:08.783Z,11.96
2023-03-26T06:46:05.421Z,12.11
2023-03-26T06:49:08.796Z,12.29
2023-03-26T06:52:13.392Z,12.58
2023-03-26T06:55:16.553Z,12.32
2023-03-26T06:58:19.277Z,13.09
2023-03-26T07:01:22.472Z,13.14
2023-03-26T07:04:44.398Z,13.17
2023-03-26T07:07:57.195Z,13.65
2023-03-26T07:11:11.264Z,13.87
2023-03-26T07:14:18.035Z,13.98
2023-03-26T07:17:21.064Z,14.37
2023-03-26T07:20:24.508Z,14.63
2023-03-26T07:23:27.583Z,14.88
2023-03-26T07:26:40.370Z,15.11
2023-03-26T07:29:59.291Z,15.20
2023-03-26T07:33:10.188Z,15.14
2023-03-26T07:36:27.794Z,15.20
2023-03-26T07:39:45.208Z,15.21
2023-03-26T07:43:10.486Z,15.53
2023-03-26T07:46:14.420Z,15.58
2023-03-26T07:49:17.941Z,15.68
2023-03-26T07:52:24.329Z,15.86
2023-03-26T07:55:27.176Z,15.70
2023-03-26T07:58:56.235Z,15.20
2023-03-26T08:02:23.182Z,15.85
2023-03-26T08:05:37.722Z,15.71
2023-03-26T08:09:02.881Z,16.20
2023-03-26T08:12:33.983Z,15.84
2023-03-26T08:15:49.823Z,15.63
2023-03-26T08:19:06.213Z,15.42
2023-03-26T08:22:17.269Z,15.41
2023-03-26T08:25:27.636Z,15.41
2023-03-26T08:28:47.021Z,15.38
2023-03-26T08:31:50.716Z,15.56
2023-03-26T08:34:53.146Z,15.47
2023-03-26T08:37:55.870Z,15.14
2023-03-26T08:41:10.559Z,15.18
2023-03-26T08:44:41.793Z,14.24
2023-03-26T08:48:25.820Z,13.87
2023-03-26T08:52:06.096Z,13.79
2023-03-26T08:55:23.960Z,13.75
2023-03-26T08:58:57.252Z,13.94
2023-03-26T09:02:17.406Z,14.24
2023-03-26T09:05:46.637Z,14.42
2023-03-26T09:09:19.072Z,14.77
2023-03-26T09:12:33.849Z,15.35
2023-03-26T09:15:36.087Z,15.61
2023-03-26T09:19:10.995Z,15.63
2023-03-26T09:22:13.188Z,16.01
2023-03-26T09:25:25.315Z,16.42
2023-03-26T09:28:45.437Z,16.17
2023-03-26T09:31:48.003Z,16.11
2023-03-26T09:35:12.613Z,16.06
2023-03-26T09:38:45.480Z,15.92
2023-03-26T09:42:15.496Z,16.09
2023-03-26T09:45:18.013Z,15.73
2023-03-26T09:48:20.787Z,15.87
2023-03-26T09:51:33.263Z,16.08
2023-03-26T09:54:44.535Z,16.50
2023-03-26T09:58:25.021Z,17.39
2023-03-26T10:01:42.824Z,17.71
2023-03-26T10:05:05.011Z,18.81
2023-03-26T10:08:36.867Z,19.41
2023-03-26T10:12:31.629Z,19.00
2023-03-26T10:15:59.415Z,18.85
2023-03-26T10:19:31.651Z,18.63
2023-03-26T10:23:14.437Z,17.95
2023-03-26T10:27:12.854Z,17.45
2023-03-26T10:30:29.551Z,16.66
2023-03-26T10:34:01.310Z,16.42
2023-03-26T10:37:22.442Z,15.80
2023-03-26T10:41:05.091Z,15.24
2023-03-26T10:44:28.072Z,14.49
2023-03-26T10:47:55.132Z,14.16
2023-03-26T10:51:06.272Z,14.14
2023-03-26T10:54:15.049Z,14.51
2023-03-26T10:57:54.578Z,15.31
2023-03-26T11:01:06.133Z,15.54
2023-03-26T11:04:28.901Z,15.63
2023-03-26T11:07:53.823Z,16.12
2023-03-26T11:11:14.260Z,16.27
2023-03-26T11:14:34.756Z,16.20
2023-03-26T11:17:41.567Z,16.30
2023-03-26T11:20:57.637Z,16.23
2023-03-26T11:25:03.861Z,16.18
2023-03-26T11:28:15.974Z,16.72
2023-03-26T11:32:01.788Z,16.91
2023-03-26T11:35:14.867Z,17.05
2023-03-26T11:38:37.544Z,17.01
2023-03-26T11:41:40.790Z,16.66
2023-03-26T11:44:50.357Z,16.82
2023-03-26T11:47:59.727Z,17.10
2023-03-26T11:51:08.551Z,17.83
2023-03-26T11:54:12.744Z,17.93
2023-03-26T11:57:26.314Z,18.23
2023-03-26T12:00:30.271Z,18.19
2023-03-26T12:03:33.828Z,18.56
2023-03-26T12:06:36.215Z,18.24
2023-03-26T12:09:53.519Z,18.37
2023-03-26T12:12:59.113Z,18.36
2023-03-26T12:16:13.995Z,18.39
2023-03-26T12:19:20.108Z,18.33
2023-03-26T12:22:38.583Z,17.91
2023-03-26T12:25:40.930Z,18.09
2023-03-26T12:28:49.365Z,18.08
2023-03-26T12:32:02.962Z,17.81
2023-03-26T12:35:08.152Z,17.42
2023-03-26T12:38:22.037Z,17.77
2023-03-26T12:44:44.553Z,17.41
2023-03-26T12:45:06.878Z,17.74
2023-03-26T12:48:12.997Z,18.12
2023-03-26T12:51:24.937Z,18.03
2023-03-26T12:54:56.594Z,18.05
2023-03-26T12:58:26.070Z,18.42
2023-03-26T13:01:38.882Z,18.26
2023-03-26T13:05:05.096Z,18.05
2023-03-26T13:08:38.184Z,17.97
2023-03-26T13:11:41.570Z,17.74
2023-03-26T13:15:22.051Z,17.44
2023-03-26T13:18:43.591Z,17.48
2023-03-26T13:22:06.440Z,17.68
2023-03-26T13:25:30.273Z,18.02
2023-03-26T13:28:39.387Z,17.72
2023-03-26T13:31:49.498Z,17.89
2023-03-26T13:34:55.211Z,17.61
2023-03-26T13:38:23.761Z,17.60
2023-03-26T13:41:42.907Z,17.50
2023-03-26T13:44:52.873Z,17.77
2023-03-26T13:48:16.927Z,18.14
2023-03-26T13:51:28.916Z,18.25
2023-03-26T13:54:44.786Z,18.24
2023-03-26T13:58:03.232Z,17.93
2023-03-26T14:01:19.528Z,17.77
2023-03-26T14:04:25.079Z,17.81
2023-03-26T14:07:34.712Z,17.92
2023-03-26T14:10:43.054Z,17.59
2023-03-26T14:14:04.075Z,17.50
2023-03-26T14:17:25.620Z,17.74
2023-03-26T14:20:34.053Z,17.71
2023-03-26T14:24:11.608Z,17.59
2023-03-26T14:27:29.037Z,17.50
2023-03-26T14:30:48.219Z,17.45
2023-03-26T14:34:04.822Z,17.54
2023-03-26T14:37:27.908Z,17.42
2023-03-26T14:40:33.797Z,17.47
2023-03-26T14:43:48.922Z,17.57
2023-03-26T14:47:07.520Z,17.58
2023-03-26T14:50:20.257Z,17.60
2023-03-26T14:53:33.519Z,17.47
2023-03-26T14:56:39.224Z,17.29
2023-03-26T15:00:07.258Z,17.27
2023-03-26T15:03:26.002Z,17.30
2023-03-26T15:06:47.186Z,17.25
2023-03-26T15:10:47.394Z,17.19
2023-03-26T15:13:56.253Z,17.08
2023-03-26T15:17:30.691Z,17.00
2023-03-26T15:20:56.526Z,16.92
2023-03-26T15:24:24.493Z,16.88
2023-03-26T15:27:32.880Z,16.82
2023-03-26T15:31:10.731Z,16.81
2023-03-26T15:34:20.165Z,16.78
2023-03-26T15:37:27.384Z,16.70
2023-03-26T15:40:48.663Z,16.65
2023-03-26T15:47:27.287Z,16.59
2023-03-26T15:50:45.797Z,16.57
2023-03-26T15:53:57.633Z,16.39
2023-03-26T15:57:16.982Z,16.53
2023-03-26T16:00:25.905Z,16.46
2023-03-26T16:03:53.700Z,16.44
2023-03-26T16:07:03.673Z,16.39
2023-03-26T16:10:20.401Z,16.31
2023-03-26T16:13:26.582Z,16.22
2023-03-26T16:16:59.219Z,16.16
2023-03-26T16:20:35.679Z,16.10
2023-03-26T16:23:47.528Z,16.03
2023-03-26T16:27:10.644Z,15.95
2023-03-26T16:30:19.490Z,15.82
2023-03-26T16:33:37.551Z,15.85
2023-03-26T16:36:45.003Z,15.78
2023-03-26T16:39:48.228Z,15.58
2023-03-26T16:43:10.395Z,15.64
2023-03-26T16:46:29.529Z,15.62
2023-03-26T16:49:46.849Z,15.47
2023-03-26T16:53:29.907Z,15.49
2023-03-26T16:57:10.190Z,15.41
2023-03-26T17:00:44.958Z,15.34
2023-03-26T17:04:17.293Z,15.28
2023-03-26T17:07:42.060Z,15.19
2023-03-26T17:11:03.060Z,15.14
2023-03-26T17:18:00.812Z,14.76
2023-03-26T17:21:18.540Z,14.95
2023-03-26T17:24:41.835Z,14.75
2023-03-26T17:28:27.496Z,14.89
2023-03-26T17:31:39.216Z,14.84
2023-03-26T17:34:50.940Z,14.81
2023-03-26T17:37:53.828Z,14.78
2023-03-26T17:40:58.874Z,14.63
2023-03-26T17:44:26.120Z,14.58
2023-03-26T17:47:58.548Z,14.60
2023-03-26T17:51:27.978Z,14.67
2023-03-26T17:54:39.399Z,14.44
2023-03-26T17:57:46.502Z,14.62
2023-03-26T18:01:07.567Z,14.62
2023-03-26T18:04:21.573Z,14.57
2023-03-26T18:08:08.196Z,14.58
2023-03-26T18:11:50.881Z,14.45
2023-03-26T18:15:02.087Z,14.43
2023-03-26T18:18:16.503Z,14.58
2023-03-26T18:21:24.950Z,14.55
2023-03-26T18:24:31.453Z,14.55
2023-03-26T18:27:38.880Z,14.55
2023-03-26T18:30:48.742Z,14.53
2023-03-26T18:33:59.046Z,14.52
2023-03-26T18:37:11.513Z,14.53
2023-03-26T18:40:19.168Z,14.44
2023-03-26T18:43:34.384Z,14.31
2023-03-26T18:46:37.305Z,14.42
2023-03-26T18:49:46.160Z,14.37
2023-03-26T18:52:48.853Z,14.29
2023-03-26T18:55:52.415Z,14.35
2023-03-26T18:58:58.010Z,14.37
2023-03-26T19:02:05.914Z,14.25
2023-03-26T19:05:14.241Z,14.22
2023-03-26T19:08:17.631Z,14.21
2023-03-26T19:11:20.156Z,14.26
2023-03-26T19:14:25.277Z,14.30
2023-03-26T19:17:31.772Z,14.16
2023-03-26T19:20:43.866Z,14.26
2023-03-26T19:23:47.413Z,14.28
2023-03-26T19:26:50.901Z,14.11
2023-03-26T19:29:53.541Z,14.07
2023-03-26T19:33:13.229Z,14.19
2023-03-26T19:36:19.505Z,14.01
2023-03-26T19:39:36.469Z,13.99
2023-03-26T19:42:43.818Z,13.93
2023-03-26T19:45:59.352Z,13.91
2023-03-26T19:49:04.355Z,13.96
2023-03-26T19:52:15.999Z,14.08
2023-03-26T19:55:22.503Z,14.08
2023-03-26T19:58:26.588Z,14.07
2023-03-26T20:01:30.420Z,13.90
2023-03-26T20:04:33.108Z,13.87
2023-03-26T20:07:39.330Z,13.97
2023-03-26T20:10:43.109Z,14.00
2023-03-26T20:13:46.414Z,13.85
2023-03-26T20:16:49.396Z,13.85
2023-03-26T20:19:54.281Z,13.93
2023-03-26T20:22:56.948Z,14.00
2023-03-26T20:25:59.327Z,13.94
2023-03-26T20:29:03.075Z,13.95
2023-03-26T20:32:18.407Z,13.93
2023-03-26T20:35:36.285Z,13.83
2023-03-26T20:38:40.144Z,13.74
2023-03-26T20:41:50.149Z,13.54
2023-03-26T20:44:52.502Z,13.51
2023-03-26T20:47:55.130Z,13.45
2023-03-26T20:50:57.585Z,13.69
2023-03-26T20:54:00.672Z,13.52
2023-03-26T20:57:03.398Z,13.49
2023-03-26T21:00:19.244Z,13.47
2023-03-26T21:03:21.597Z,13.34
2023-03-26T21:06:24.221Z,13.36
2023-03-26T21:09:34.273Z,13.33
2023-03-26T21:12:43.383Z,13.15
2023-03-26T21:15:46.124Z,13.31
2023-03-26T21:18:49.024Z,13.22
2023-03-26T21:22:20.749Z,13.21
2023-03-26T21:25:39.326Z,13.29
2023-03-26T21:28:47.595Z,13.18
2023-03-26T21:31:53.459Z,13.19
2023-03-26T21:34:59.227Z,13.06
2023-03-26T21:38:04.502Z,13.09
2023-03-26T21:41:07.763Z,13.24
2023-03-26T21:44:10.937Z,13.17
2023-03-26T21:47:13.708Z,13.10
2023-03-26T21:50:19.376Z,13.18
2023-03-26T21:53:22.611Z,13.03
2023-03-26T21:56:36.478Z,13.00
2023-03-26T21:59:46.325Z,12.55
2023-03-26T22:03:12.376Z,12.90
2023-03-26T22:06:51.361Z,13.00
2023-03-26T22:09:53.977Z,12.99
2023-03-26T22:12:56.889Z,12.83
2023-03-26T22:15:59.484Z,12.99
2023-03-26T22:19:02.221Z,12.99
2023-03-26T22:22:05.398Z,12.86
2023-03-26T22:25:10.387Z,13.01
2023-03-26T22:28:12.997Z,13.02
2023-03-26T22:31:16.678Z,13.02
2023-03-26T22:34:19.849Z,12.84
2023-03-26T22:37:23.473Z,12.90
2023-03-26T22:40:26.521Z,12.66
2023-03-26T22:43:29.454Z,12.57
2023-03-26T22:46:31.840Z,12.46
2023-03-26T22:49:34.624Z,12.44
2023-03-26T22:52:37.702Z,12.25
2023-03-26T22:55:40.520Z,12.32
2023-03-26T22:58:42.903Z,12.18
2023-03-26T23:01:45.907Z,12.23
2023-03-26T23:04:48.847Z,12.14
2023-03-26T23:07:52.282Z,12.00
2023-03-26T23:10:54.887Z,11.83
2023-03-26T23:13:57.721Z,11.67
2023-03-26T23:17:00.520Z,11.49
2023-03-26T23:20:13.705Z,11.11
2023-03-26T23:23:16.097Z,10.97
2023-03-26T23:26:18.943Z,11.04
2023-03-26T23:29:21.556Z,11.05
2023-03-26T23:32:28.118Z,11.13
2023-03-26T23:35:30.561Z,11.11
2023-03-26T23:38:43.640Z,11.08
2023-03-26T23:41:46.663Z,11.02
2023-03-26T23:44:49.366Z,10.82
2023-03-26T23:47:51.782Z,10.87
2023-03-26T23:51:02.989Z,10.75
2023-03-26T23:54:27.130Z,10.66
2023-03-26T23:57:30.598Z,10.64
